sensor_id;sensor_type;location;lat;lon;timestamp;P1;durP1;ratioP1;P2;durP2;ratioP2
14603;SDS011;7388;51.078;13.740;2023-11-21T00:00:15;17.73;;;2.30;;
14603;SDS011;7388;51.078;13.740;2023-11-21T00:02:41;19.33;;;1.67;;
14603;SDS011;7388;51.078;13.740;2023-11-21T00:05:08;16.05;;;1.60;;
14603;SDS011;7388;51.078;13.740;2023-11-21T00:07:35;15.85;;;2.65;;
14603;SDS011;7388;51.078;13.740;2023-11-21T00:10:01;21.35;;;1.85;;
14603;SDS011;7388;51.078;13.740;2023-11-21T00:12:28;21.52;;;1.95;;
14603;SDS011;7388;51.078;13.740;2023-11-21T00:14:54;17.58;;;2.22;;
14603;SDS011;7388;51.078;13.740;2023-11-21T00:17:20;20.58;;;1.65;;
14603;SDS011;7388;51.078;13.740;2023-11-21T00:19:46;18.07;;;2.13;;
14603;SDS011;7388;51.078;13.740;2023-11-21T00:22:12;19.70;;;1.92;;
14603;SDS011;7388;51.078;13.740;2023-11-21T00:24:38;20.35;;;2.63;;
14603;SDS011;7388;51.078;13.740;2023-11-21T00:27:04;15.68;;;1.63;;
14603;SDS011;7388;51.078;13.740;2023-11-21T00:29:31;17.73;;;1.45;;
14603;SDS011;7388;51.078;13.740;2023-11-21T00:31:57;22.85;;;1.95;;
14603;SDS011;7388;51.078;13.740;2023-11-21T00:34:23;24.13;;;2.07;;
14603;SDS011;7388;51.078;13.740;2023-11-21T00:36:49;18.97;;;2.00;;
14603;SDS011;7388;51.078;13.740;2023-11-21T00:39:14;18.67;;;1.60;;
14603;SDS011;7388;51.078;13.740;2023-11-21T00:41:40;18.60;;;1.75;;
14603;SDS011;7388;51.078;13.740;2023-11-21T00:44:07;44.78;;;3.60;;
14603;SDS011;7388;51.078;13.740;2023-11-21T00:46:33;20.60;;;1.83;;
14603;SDS011;7388;51.078;13.740;2023-11-21T00:48:59;15.93;;;1.67;;
14603;SDS011;7388;51.078;13.740;2023-11-21T00:51:25;32.40;;;2.95;;
14603;SDS011;7388;51.078;13.740;2023-11-21T00:53:51;17.27;;;1.40;;
14603;SDS011;7388;51.078;13.740;2023-11-21T00:56:17;17.55;;;2.00;;
14603;SDS011;7388;51.078;13.740;2023-11-21T00:58:43;18.33;;;1.77;;
14603;SDS011;7388;51.078;13.740;2023-11-21T01:01:14;19.17;;;2.22;;
14603;SDS011;7388;51.078;13.740;2023-11-21T01:03:40;10.35;;;1.33;;
14603;SDS011;7388;51.078;13.740;2023-11-21T01:06:07;15.00;;;1.58;;
14603;SDS011;7388;51.078;13.740;2023-11-21T01:08:34;17.30;;;1.50;;
14603;SDS011;7388;51.078;13.740;2023-11-21T01:11:00;20.70;;;1.90;;
14603;SDS011;7388;51.078;13.740;2023-11-21T01:13:27;19.58;;;1.90;;
14603;SDS011;7388;51.078;13.740;2023-11-21T01:15:53;18.77;;;1.65;;
14603;SDS011;7388;51.078;13.740;2023-11-21T01:18:19;17.77;;;2.07;;
14603;SDS011;7388;51.078;13.740;2023-11-21T01:20:45;21.65;;;1.75;;
14603;SDS011;7388;51.078;13.740;2023-11-21T01:23:12;17.98;;;1.67;;
14603;SDS011;7388;51.078;13.740;2023-11-21T01:25:38;13.95;;;1.83;;
14603;SDS011;7388;51.078;13.740;2023-11-21T01:28:05;13.65;;;1.45;;
14603;SDS011;7388;51.078;13.740;2023-11-21T01:30:32;6.25;;;1.63;;
14603;SDS011;7388;51.078;13.740;2023-11-21T01:32:58;19.48;;;5.35;;
14603;SDS011;7388;51.078;13.740;2023-11-21T01:35:24;27.30;;;2.17;;
14603;SDS011;7388;51.078;13.740;2023-11-21T01:37:50;22.93;;;3.97;;
14603;SDS011;7388;51.078;13.740;2023-11-21T01:40:16;75.93;;;50.43;;
14603;SDS011;7388;51.078;13.740;2023-11-21T01:42:42;200.30;;;111.87;;
14603;SDS011;7388;51.078;13.740;2023-11-21T01:45:12;397.50;;;140.15;;
14603;SDS011;7388;51.078;13.740;2023-11-21T01:47:38;1.00;;;0.50;;
14603;SDS011;7388;51.078;13.740;2023-11-21T01:50:06;1.10;;;1.00;;
14603;SDS011;7388;51.078;13.740;2023-11-21T01:52:36;1.00;;;0.68;;
14603;SDS011;7388;51.078;13.740;2023-11-21T01:55:04;6.22;;;1.25;;
14603;SDS011;7388;51.078;13.740;2023-11-21T01:57:31;6.22;;;1.25;;
14603;SDS011;7388;51.078;13.740;2023-11-21T01:59:58;12.88;;;2.05;;
14603;SDS011;7388;51.078;13.740;2023-11-21T02:02:26;10.27;;;1.85;;
14603;SDS011;7388;51.078;13.740;2023-11-21T02:04:52;9.73;;;1.57;;
14603;SDS011;7388;51.078;13.740;2023-11-21T02:07:18;5.53;;;1.10;;
14603;SDS011;7388;51.078;13.740;2023-11-21T02:09:44;11.60;;;3.33;;
14603;SDS011;7388;51.078;13.740;2023-11-21T02:12:10;10.17;;;1.53;;
14603;SDS011;7388;51.078;13.740;2023-11-21T02:14:36;13.07;;;1.97;;
14603;SDS011;7388;51.078;13.740;2023-11-21T02:17:02;9.93;;;1.63;;
14603;SDS011;7388;51.078;13.740;2023-11-21T02:19:28;14.73;;;1.65;;
14603;SDS011;7388;51.078;13.740;2023-11-21T02:21:56;12.98;;;1.50;;
14603;SDS011;7388;51.078;13.740;2023-11-21T02:24:28;16.67;;;1.80;;
14603;SDS011;7388;51.078;13.740;2023-11-21T02:26:54;11.30;;;1.38;;
14603;SDS011;7388;51.078;13.740;2023-11-21T02:29:21;18.67;;;1.70;;
14603;SDS011;7388;51.078;13.740;2023-11-21T02:31:47;14.07;;;1.27;;
14603;SDS011;7388;51.078;13.740;2023-11-21T02:34:16;20.92;;;1.75;;
14603;SDS011;7388;51.078;13.740;2023-11-21T02:36:43;17.42;;;1.45;;
14603;SDS011;7388;51.078;13.740;2023-11-21T02:39:10;21.23;;;2.00;;
14603;SDS011;7388;51.078;13.740;2023-11-21T02:41:36;29.48;;;2.45;;
14603;SDS011;7388;51.078;13.740;2023-11-21T02:44:04;74.43;;;5.57;;
14603;SDS011;7388;51.078;13.740;2023-11-21T02:46:31;24.08;;;1.88;;
14603;SDS011;7388;51.078;13.740;2023-11-21T02:49:03;18.45;;;1.45;;
14603;SDS011;7388;51.078;13.740;2023-11-21T02:51:31;27.45;;;2.08;;
14603;SDS011;7388;51.078;13.740;2023-11-21T02:53:57;70.18;;;5.22;;
14603;SDS011;7388;51.078;13.740;2023-11-21T02:56:27;30.38;;;2.30;;
14603;SDS011;7388;51.078;13.740;2023-11-21T02:58:55;23.63;;;1.85;;
14603;SDS011;7388;51.078;13.740;2023-11-21T03:01:21;23.58;;;2.58;;
14603;SDS011;7388;51.078;13.740;2023-11-21T03:03:49;22.23;;;1.75;;
14603;SDS011;7388;51.078;13.740;2023-11-21T03:06:19;19.88;;;1.60;;
14603;SDS011;7388;51.078;13.740;2023-11-21T03:08:45;20.92;;;2.17;;
14603;SDS011;7388;51.078;13.740;2023-11-21T03:11:12;22.77;;;1.83;;
14603;SDS011;7388;51.078;13.740;2023-11-21T03:13:41;20.38;;;1.60;;
14603;SDS011;7388;51.078;13.740;2023-11-21T03:16:08;13.27;;;1.20;;
14603;SDS011;7388;51.078;13.740;2023-11-21T03:18:34;17.98;;;2.00;;
14603;SDS011;7388;51.078;13.740;2023-11-21T03:21:01;19.23;;;1.50;;
14603;SDS011;7388;51.078;13.740;2023-11-21T03:23:28;28.98;;;2.58;;
14603;SDS011;7388;51.078;13.740;2023-11-21T03:25:54;24.73;;;1.87;;
14603;SDS011;7388;51.078;13.740;2023-11-21T03:28:20;32.80;;;2.43;;
14603;SDS011;7388;51.078;13.740;2023-11-21T03:30:46;17.03;;;1.43;;
14603;SDS011;7388;51.078;13.740;2023-11-21T03:33:12;19.50;;;1.65;;
14603;SDS011;7388;51.078;13.740;2023-11-21T03:35:38;19.40;;;1.80;;
14603;SDS011;7388;51.078;13.740;2023-11-21T03:38:04;21.13;;;1.65;;
14603;SDS011;7388;51.078;13.740;2023-11-21T03:40:30;26.75;;;2.00;;
14603;SDS011;7388;51.078;13.740;2023-11-21T03:42:56;21.52;;;1.63;;
14603;SDS011;7388;51.078;13.740;2023-11-21T03:45:22;20.03;;;1.60;;
14603;SDS011;7388;51.078;13.740;2023-11-21T03:47:48;20.93;;;2.50;;
14603;SDS011;7388;51.078;13.740;2023-11-21T03:50:14;18.15;;;1.42;;
14603;SDS011;7388;51.078;13.740;2023-11-21T03:52:40;19.23;;;1.63;;
14603;SDS011;7388;51.078;13.740;2023-11-21T03:55:06;20.70;;;1.47;;
14603;SDS011;7388;51.078;13.740;2023-11-21T03:57:32;25.02;;;1.98;;
14603;SDS011;7388;51.078;13.740;2023-11-21T03:59:58;20.38;;;1.90;;
14603;SDS011;7388;51.078;13.740;2023-11-21T04:02:24;24.37;;;2.73;;
14603;SDS011;7388;51.078;13.740;2023-11-21T04:04:51;17.65;;;1.55;;
14603;SDS011;7388;51.078;13.740;2023-11-21T04:07:17;20.60;;;1.67;;
14603;SDS011;7388;51.078;13.740;2023-11-21T04:09:43;22.60;;;1.63;;
14603;SDS011;7388;51.078;13.740;2023-11-21T04:12:08;24.40;;;2.13;;
14603;SDS011;7388;51.078;13.740;2023-11-21T04:14:35;22.08;;;1.77;;
14603;SDS011;7388;51.078;13.740;2023-11-21T04:17:00;19.97;;;1.47;;
14603;SDS011;7388;51.078;13.740;2023-11-21T04:19:26;21.55;;;1.65;;
14603;SDS011;7388;51.078;13.740;2023-11-21T04:21:52;16.90;;;1.42;;
14603;SDS011;7388;51.078;13.740;2023-11-21T04:24:19;13.60;;;1.50;;
14603;SDS011;7388;51.078;13.740;2023-11-21T04:26:45;31.85;;;2.30;;
14603;SDS011;7388;51.078;13.740;2023-11-21T04:29:11;23.55;;;2.22;;
14603;SDS011;7388;51.078;13.740;2023-11-21T04:31:37;26.63;;;2.27;;
14603;SDS011;7388;51.078;13.740;2023-11-21T04:34:03;71.47;;;5.00;;
14603;SDS011;7388;51.078;13.740;2023-11-21T04:36:29;30.42;;;2.08;;
14603;SDS011;7388;51.078;13.740;2023-11-21T04:38:59;15.70;;;1.65;;
14603;SDS011;7388;51.078;13.740;2023-11-21T04:41:25;39.30;;;3.40;;
14603;SDS011;7388;51.078;13.740;2023-11-21T04:43:51;11.85;;;1.65;;
14603;SDS011;7388;51.078;13.740;2023-11-21T04:46:17;7.85;;;1.08;;
14603;SDS011;7388;51.078;13.740;2023-11-21T04:48:43;12.32;;;1.42;;
14603;SDS011;7388;51.078;13.740;2023-11-21T04:51:09;14.82;;;1.70;;
14603;SDS011;7388;51.078;13.740;2023-11-21T04:53:37;7.18;;;2.15;;
14603;SDS011;7388;51.078;13.740;2023-11-21T04:56:04;1.02;;;0.60;;
14603;SDS011;7388;51.078;13.740;2023-11-21T04:58:31;5.05;;;1.90;;
14603;SDS011;7388;51.078;13.740;2023-11-21T05:00:58;6.38;;;2.13;;
14603;SDS011;7388;51.078;13.740;2023-11-21T05:03:23;6.87;;;1.70;;
14603;SDS011;7388;51.078;13.740;2023-11-21T05:05:49;5.47;;;1.30;;
14603;SDS011;7388;51.078;13.740;2023-11-21T05:08:15;6.30;;;1.20;;
14603;SDS011;7388;51.078;13.740;2023-11-21T05:10:41;5.80;;;1.33;;
14603;SDS011;7388;51.078;13.740;2023-11-21T05:13:06;3.77;;;1.10;;
14603;SDS011;7388;51.078;13.740;2023-11-21T05:15:35;4.60;;;1.52;;
14603;SDS011;7388;51.078;13.740;2023-11-21T05:18:01;4.73;;;1.50;;
14603;SDS011;7388;51.078;13.740;2023-11-21T05:20:27;5.30;;;1.60;;
14603;SDS011;7388;51.078;13.740;2023-11-21T05:22:53;6.28;;;1.20;;
14603;SDS011;7388;51.078;13.740;2023-11-21T05:25:19;7.13;;;1.63;;
14603;SDS011;7388;51.078;13.740;2023-11-21T05:27:45;3.60;;;1.03;;
14603;SDS011;7388;51.078;13.740;2023-11-21T05:30:11;5.18;;;2.20;;
14603;SDS011;7388;51.078;13.740;2023-11-21T05:32:39;3.65;;;1.15;;
14603;SDS011;7388;51.078;13.740;2023-11-21T05:35:07;3.85;;;1.33;;
14603;SDS011;7388;51.078;13.740;2023-11-21T05:37:37;4.03;;;1.25;;
14603;SDS011;7388;51.078;13.740;2023-11-21T05:40:07;2.65;;;1.25;;
14603;SDS011;7388;51.078;13.740;2023-11-21T05:42:33;3.40;;;1.67;;
14603;SDS011;7388;51.078;13.740;2023-11-21T05:45:00;4.13;;;1.25;;
14603;SDS011;7388;51.078;13.740;2023-11-21T05:47:39;4.15;;;1.00;;
14603;SDS011;7388;51.078;13.740;2023-11-21T05:50:06;5.50;;;1.80;;
14603;SDS011;7388;51.078;13.740;2023-11-21T05:52:37;4.63;;;2.05;;
14603;SDS011;7388;51.078;13.740;2023-11-21T05:55:04;3.65;;;1.40;;
14603;SDS011;7388;51.078;13.740;2023-11-21T05:57:33;4.28;;;1.20;;
14603;SDS011;7388;51.078;13.740;2023-11-21T06:00:06;4.65;;;1.20;;
14603;SDS011;7388;51.078;13.740;2023-11-21T06:02:39;5.75;;;1.48;;
14603;SDS011;7388;51.078;13.740;2023-11-21T06:05:08;5.30;;;1.02;;
14603;SDS011;7388;51.078;13.740;2023-11-21T06:07:35;5.90;;;2.17;;
14603;SDS011;7388;51.078;13.740;2023-11-21T06:10:02;5.95;;;1.60;;
14603;SDS011;7388;51.078;13.740;2023-11-21T06:12:31;7.00;;;1.77;;
14603;SDS011;7388;51.078;13.740;2023-11-21T06:15:01;6.78;;;2.92;;
14603;SDS011;7388;51.078;13.740;2023-11-21T06:17:30;6.07;;;1.80;;
14603;SDS011;7388;51.078;13.740;2023-11-21T06:19:56;6.43;;;2.03;;
14603;SDS011;7388;51.078;13.740;2023-11-21T06:22:22;5.70;;;1.40;;
14603;SDS011;7388;51.078;13.740;2023-11-21T06:24:48;7.30;;;1.73;;
14603;SDS011;7388;51.078;13.740;2023-11-21T06:27:14;6.43;;;1.70;;
14603;SDS011;7388;51.078;13.740;2023-11-21T06:29:41;8.50;;;1.88;;
14603;SDS011;7388;51.078;13.740;2023-11-21T06:32:07;8.30;;;1.85;;
14603;SDS011;7388;51.078;13.740;2023-11-21T06:34:33;9.57;;;1.85;;
14603;SDS011;7388;51.078;13.740;2023-11-21T06:36:59;7.40;;;1.47;;
14603;SDS011;7388;51.078;13.740;2023-11-21T06:39:25;7.40;;;1.57;;
14603;SDS011;7388;51.078;13.740;2023-11-21T06:41:50;9.40;;;2.83;;
14603;SDS011;7388;51.078;13.740;2023-11-21T06:44:16;6.00;;;1.60;;
14603;SDS011;7388;51.078;13.740;2023-11-21T06:46:42;9.40;;;1.47;;
14603;SDS011;7388;51.078;13.740;2023-11-21T06:49:08;10.13;;;2.17;;
14603;SDS011;7388;51.078;13.740;2023-11-21T06:51:34;16.73;;;2.88;;
14603;SDS011;7388;51.078;13.740;2023-11-21T06:54:00;9.20;;;1.83;;
14603;SDS011;7388;51.078;13.740;2023-11-21T06:56:25;6.27;;;1.13;;
14603;SDS011;7388;51.078;13.740;2023-11-21T06:58:51;8.73;;;1.83;;
14603;SDS011;7388;51.078;13.740;2023-11-21T07:01:20;10.40;;;2.58;;
14603;SDS011;7388;51.078;13.740;2023-11-21T07:03:46;10.73;;;1.73;;
14603;SDS011;7388;51.078;13.740;2023-11-21T07:06:12;10.93;;;2.67;;
14603;SDS011;7388;51.078;13.740;2023-11-21T07:08:38;15.90;;;2.65;;
14603;SDS011;7388;51.078;13.740;2023-11-21T07:11:04;9.93;;;2.10;;
14603;SDS011;7388;51.078;13.740;2023-11-21T07:13:30;10.80;;;1.87;;
14603;SDS011;7388;51.078;13.740;2023-11-21T07:15:57;6.55;;;1.42;;
14603;SDS011;7388;51.078;13.740;2023-11-21T07:18:23;8.05;;;1.80;;
14603;SDS011;7388;51.078;13.740;2023-11-21T07:20:49;7.83;;;1.50;;
14603;SDS011;7388;51.078;13.740;2023-11-21T07:23:15;9.13;;;2.00;;
14603;SDS011;7388;51.078;13.740;2023-11-21T07:25:41;6.67;;;1.20;;
14603;SDS011;7388;51.078;13.740;2023-11-21T07:28:08;8.60;;;1.67;;
14603;SDS011;7388;51.078;13.740;2023-11-21T07:30:34;12.35;;;2.13;;
14603;SDS011;7388;51.078;13.740;2023-11-21T07:33:00;8.77;;;1.70;;
14603;SDS011;7388;51.078;13.740;2023-11-21T07:35:26;8.63;;;1.30;;
14603;SDS011;7388;51.078;13.740;2023-11-21T07:37:51;17.33;;;5.50;;
14603;SDS011;7388;51.078;13.740;2023-11-21T07:40:17;17.90;;;2.67;;
14603;SDS011;7388;51.078;13.740;2023-11-21T07:42:43;11.50;;;1.77;;
14603;SDS011;7388;51.078;13.740;2023-11-21T07:45:09;10.17;;;1.83;;
14603;SDS011;7388;51.078;13.740;2023-11-21T07:47:35;11.40;;;1.60;;
14603;SDS011;7388;51.078;13.740;2023-11-21T07:50:03;9.30;;;1.67;;
14603;SDS011;7388;51.078;13.740;2023-11-21T07:52:29;9.50;;;1.75;;
14603;SDS011;7388;51.078;13.740;2023-11-21T07:54:55;8.73;;;1.40;;
14603;SDS011;7388;51.078;13.740;2023-11-21T07:57:21;7.87;;;1.23;;
14603;SDS011;7388;51.078;13.740;2023-11-21T07:59:47;13.00;;;1.70;;
14603;SDS011;7388;51.078;13.740;2023-11-21T08:02:13;12.15;;;1.65;;
14603;SDS011;7388;51.078;13.740;2023-11-21T08:04:41;11.18;;;1.48;;
14603;SDS011;7388;51.078;13.740;2023-11-21T08:07:08;11.90;;;1.80;;
14603;SDS011;7388;51.078;13.740;2023-11-21T08:09:34;14.38;;;1.67;;
14603;SDS011;7388;51.078;13.740;2023-11-21T08:12:00;11.30;;;1.63;;
14603;SDS011;7388;51.078;13.740;2023-11-21T08:14:27;10.13;;;1.92;;
14603;SDS011;7388;51.078;13.740;2023-11-21T08:16:53;13.40;;;2.10;;
14603;SDS011;7388;51.078;13.740;2023-11-21T08:19:23;16.50;;;2.80;;
14603;SDS011;7388;51.078;13.740;2023-11-21T08:21:50;9.18;;;1.95;;
14603;SDS011;7388;51.078;13.740;2023-11-21T08:24:16;12.13;;;1.60;;
14603;SDS011;7388;51.078;13.740;2023-11-21T08:26:42;15.77;;;2.20;;
14603;SDS011;7388;51.078;13.740;2023-11-21T08:29:08;11.52;;;2.33;;
14603;SDS011;7388;51.078;13.740;2023-11-21T08:31:34;17.07;;;2.40;;
14603;SDS011;7388;51.078;13.740;2023-11-21T08:33:59;14.13;;;2.43;;
14603;SDS011;7388;51.078;13.740;2023-11-21T08:36:27;11.20;;;1.65;;
14603;SDS011;7388;51.078;13.740;2023-11-21T08:38:53;14.90;;;4.07;;
14603;SDS011;7388;51.078;13.740;2023-11-21T08:41:20;12.23;;;2.30;;
14603;SDS011;7388;51.078;13.740;2023-11-21T08:43:51;14.13;;;1.58;;
14603;SDS011;7388;51.078;13.740;2023-11-21T08:46:20;19.58;;;2.05;;
14603;SDS011;7388;51.078;13.740;2023-11-21T08:48:46;12.77;;;1.65;;
14603;SDS011;7388;51.078;13.740;2023-11-21T08:51:12;13.17;;;1.87;;
14603;SDS011;7388;51.078;13.740;2023-11-21T08:53:39;17.00;;;2.63;;
14603;SDS011;7388;51.078;13.740;2023-11-21T08:56:05;8.43;;;1.13;;
14603;SDS011;7388;51.078;13.740;2023-11-21T08:58:31;19.85;;;2.60;;
14603;SDS011;7388;51.078;13.740;2023-11-21T09:01:01;11.73;;;1.70;;
14603;SDS011;7388;51.078;13.740;2023-11-21T09:03:28;12.57;;;1.80;;
14603;SDS011;7388;51.078;13.740;2023-11-21T09:05:54;11.02;;;1.55;;
14603;SDS011;7388;51.078;13.740;2023-11-21T09:08:20;11.68;;;2.17;;
14603;SDS011;7388;51.078;13.740;2023-11-21T09:10:47;17.35;;;2.05;;
14603;SDS011;7388;51.078;13.740;2023-11-21T09:13:13;12.20;;;1.60;;
14603;SDS011;7388;51.078;13.740;2023-11-21T09:15:39;12.07;;;1.63;;
14603;SDS011;7388;51.078;13.740;2023-11-21T09:18:05;12.00;;;1.50;;
14603;SDS011;7388;51.078;13.740;2023-11-21T09:20:31;25.80;;;2.73;;
14603;SDS011;7388;51.078;13.740;2023-11-21T09:22:56;14.87;;;2.90;;
14603;SDS011;7388;51.078;13.740;2023-11-21T09:25:22;10.93;;;2.03;;
14603;SDS011;7388;51.078;13.740;2023-11-21T09:27:49;12.82;;;1.88;;
14603;SDS011;7388;51.078;13.740;2023-11-21T09:30:15;12.05;;;1.80;;
14603;SDS011;7388;51.078;13.740;2023-11-21T09:32:41;10.68;;;2.38;;
14603;SDS011;7388;51.078;13.740;2023-11-21T09:35:10;10.23;;;1.60;;
14603;SDS011;7388;51.078;13.740;2023-11-21T09:37:38;9.75;;;1.42;;
14603;SDS011;7388;51.078;13.740;2023-11-21T09:40:05;8.07;;;1.40;;
14603;SDS011;7388;51.078;13.740;2023-11-21T09:42:43;14.15;;;3.05;;
14603;SDS011;7388;51.078;13.740;2023-11-21T09:45:27;20.00;;;3.08;;
14603;SDS011;7388;51.078;13.740;2023-11-21T09:47:54;10.27;;;1.83;;
14603;SDS011;7388;51.078;13.740;2023-11-21T09:50:23;12.45;;;1.48;;
14603;SDS011;7388;51.078;13.740;2023-11-21T09:52:54;9.55;;;1.25;;
14603;SDS011;7388;51.078;13.740;2023-11-21T09:55:31;14.55;;;2.03;;
14603;SDS011;7388;51.078;13.740;2023-11-21T09:58:02;9.23;;;1.15;;
14603;SDS011;7388;51.078;13.740;2023-11-21T10:00:28;11.68;;;1.50;;
14603;SDS011;7388;51.078;13.740;2023-11-21T10:02:58;12.57;;;1.77;;
14603;SDS011;7388;51.078;13.740;2023-11-21T10:05:24;11.07;;;1.33;;
14603;SDS011;7388;51.078;13.740;2023-11-21T10:07:50;18.17;;;2.47;;
14603;SDS011;7388;51.078;13.740;2023-11-21T10:10:20;11.82;;;1.25;;
14603;SDS011;7388;51.078;13.740;2023-11-21T10:12:52;11.05;;;2.63;;
14603;SDS011;7388;51.078;13.740;2023-11-21T10:15:22;11.57;;;2.30;;
14603;SDS011;7388;51.078;13.740;2023-11-21T10:17:52;17.35;;;2.28;;
14603;SDS011;7388;51.078;13.740;2023-11-21T10:20:22;16.75;;;2.13;;
14603;SDS011;7388;51.078;13.740;2023-11-21T10:22:49;11.50;;;1.40;;
14603;SDS011;7388;51.078;13.740;2023-11-21T10:25:16;7.28;;;0.98;;
14603;SDS011;7388;51.078;13.740;2023-11-21T10:27:47;15.75;;;1.83;;
14603;SDS011;7388;51.078;13.740;2023-11-21T10:30:15;17.15;;;3.17;;
14603;SDS011;7388;51.078;13.740;2023-11-21T10:32:44;18.80;;;3.43;;
14603;SDS011;7388;51.078;13.740;2023-11-21T10:35:11;12.82;;;1.60;;
14603;SDS011;7388;51.078;13.740;2023-11-21T10:37:37;17.73;;;2.20;;
14603;SDS011;7388;51.078;13.740;2023-11-21T10:40:05;11.38;;;1.60;;
14603;SDS011;7388;51.078;13.740;2023-11-21T10:42:32;15.52;;;1.90;;
14603;SDS011;7388;51.078;13.740;2023-11-21T10:44:58;12.35;;;1.55;;
14603;SDS011;7388;51.078;13.740;2023-11-21T10:47:25;19.08;;;2.55;;
14603;SDS011;7388;51.078;13.740;2023-11-21T10:49:52;11.55;;;1.90;;
14603;SDS011;7388;51.078;13.740;2023-11-21T10:52:21;12.85;;;1.67;;
14603;SDS011;7388;51.078;13.740;2023-11-21T10:54:51;15.40;;;2.47;;
14603;SDS011;7388;51.078;13.740;2023-11-21T10:57:17;25.10;;;4.37;;
14603;SDS011;7388;51.078;13.740;2023-11-21T10:59:46;18.45;;;2.80;;
14603;SDS011;7388;51.078;13.740;2023-11-21T11:02:24;11.18;;;2.05;;
14603;SDS011;7388;51.078;13.740;2023-11-21T11:04:53;11.40;;;2.03;;
14603;SDS011;7388;51.078;13.740;2023-11-21T11:07:25;10.68;;;1.73;;
14603;SDS011;7388;51.078;13.740;2023-11-21T11:09:53;12.40;;;1.50;;
14603;SDS011;7388;51.078;13.740;2023-11-21T11:12:20;13.02;;;1.98;;
14603;SDS011;7388;51.078;13.740;2023-11-21T11:14:46;14.68;;;2.15;;
14603;SDS011;7388;51.078;13.740;2023-11-21T11:17:13;13.23;;;1.70;;
14603;SDS011;7388;51.078;13.740;2023-11-21T11:19:39;13.57;;;3.33;;
14603;SDS011;7388;51.078;13.740;2023-11-21T11:33:03;12.35;;;1.67;;
14603;SDS011;7388;51.078;13.740;2023-11-21T11:38:18;14.00;;;1.70;;
14603;SDS011;7388;51.078;13.740;2023-11-21T11:40:47;11.75;;;1.25;;
14603;SDS011;7388;51.078;13.740;2023-11-21T11:43:13;11.57;;;1.40;;
14603;SDS011;7388;51.078;13.740;2023-11-21T11:45:40;17.33;;;2.97;;
14603;SDS011;7388;51.078;13.740;2023-11-21T11:48:10;24.60;;;2.85;;
14603;SDS011;7388;51.078;13.740;2023-11-21T11:50:42;16.75;;;2.30;;
14603;SDS011;7388;51.078;13.740;2023-11-21T11:53:14;12.82;;;2.22;;
14603;SDS011;7388;51.078;13.740;2023-11-21T11:55:40;13.88;;;1.88;;
14603;SDS011;7388;51.078;13.740;2023-11-21T11:58:07;10.98;;;1.65;;
14603;SDS011;7388;51.078;13.740;2023-11-21T12:00:33;19.58;;;2.13;;
14603;SDS011;7388;51.078;13.740;2023-11-21T12:03:03;12.10;;;1.45;;
14603;SDS011;7388;51.078;13.740;2023-11-21T12:05:31;18.33;;;3.80;;
14603;SDS011;7388;51.078;13.740;2023-11-21T12:08:01;12.20;;;1.45;;
14603;SDS011;7388;51.078;13.740;2023-11-21T12:10:28;10.73;;;1.70;;
14603;SDS011;7388;51.078;13.740;2023-11-21T12:12:55;14.23;;;1.38;;
14603;SDS011;7388;51.078;13.740;2023-11-21T12:15:23;13.93;;;2.63;;
14603;SDS011;7388;51.078;13.740;2023-11-21T12:17:50;17.52;;;2.30;;
14603;SDS011;7388;51.078;13.740;2023-11-21T12:20:23;12.25;;;1.40;;
14603;SDS011;7388;51.078;13.740;2023-11-21T12:22:50;12.95;;;2.03;;
14603;SDS011;7388;51.078;13.740;2023-11-21T12:25:18;11.27;;;1.13;;
14603;SDS011;7388;51.078;13.740;2023-11-21T12:27:45;13.60;;;2.35;;
14603;SDS011;7388;51.078;13.740;2023-11-21T12:30:12;15.90;;;2.60;;
14603;SDS011;7388;51.078;13.740;2023-11-21T12:32:39;17.90;;;1.95;;
14603;SDS011;7388;51.078;13.740;2023-11-21T12:35:06;12.85;;;1.70;;
14603;SDS011;7388;51.078;13.740;2023-11-21T12:37:33;23.65;;;2.30;;
14603;SDS011;7388;51.078;13.740;2023-11-21T12:39:59;13.20;;;1.43;;
14603;SDS011;7388;51.078;13.740;2023-11-21T12:42:25;14.30;;;2.33;;
14603;SDS011;7388;51.078;13.740;2023-11-21T12:45:07;8.82;;;2.05;;
14603;SDS011;7388;51.078;13.740;2023-11-21T12:47:43;18.88;;;3.25;;
14603;SDS011;7388;51.078;13.740;2023-11-21T12:50:32;17.35;;;3.20;;
14603;SDS011;7388;51.078;13.740;2023-11-21T12:55:33;12.50;;;1.58;;
14603;SDS011;7388;51.078;13.740;2023-11-21T12:58:03;8.10;;;1.15;;
14603;SDS011;7388;51.078;13.740;2023-11-21T13:03:05;16.92;;;1.95;;
14603;SDS011;7388;51.078;13.740;2023-11-21T13:05:33;11.27;;;2.20;;
14603;SDS011;7388;51.078;13.740;2023-11-21T13:08:02;14.13;;;1.95;;
14603;SDS011;7388;51.078;13.740;2023-11-21T13:10:32;16.92;;;3.08;;
14603;SDS011;7388;51.078;13.740;2023-11-21T13:13:02;15.98;;;2.20;;
14603;SDS011;7388;51.078;13.740;2023-11-21T13:15:46;12.30;;;1.75;;
14603;SDS011;7388;51.078;13.740;2023-11-21T13:18:13;11.40;;;1.52;;
14603;SDS011;7388;51.078;13.740;2023-11-21T13:20:40;14.27;;;1.83;;
14603;SDS011;7388;51.078;13.740;2023-11-21T13:23:08;14.82;;;3.22;;
14603;SDS011;7388;51.078;13.740;2023-11-21T13:25:37;20.60;;;4.22;;
14603;SDS011;7388;51.078;13.740;2023-11-21T13:28:06;12.90;;;2.58;;
14603;SDS011;7388;51.078;13.740;2023-11-21T13:30:32;22.10;;;3.50;;
14603;SDS011;7388;51.078;13.740;2023-11-21T13:32:59;18.03;;;2.60;;
14603;SDS011;7388;51.078;13.740;2023-11-21T13:35:32;15.15;;;4.32;;
14603;SDS011;7388;51.078;13.740;2023-11-21T13:38:07;25.52;;;2.83;;
14603;SDS011;7388;51.078;13.740;2023-11-21T13:40:34;18.67;;;2.60;;
14603;SDS011;7388;51.078;13.740;2023-11-21T13:43:05;13.95;;;2.08;;
14603;SDS011;7388;51.078;13.740;2023-11-21T13:45:34;17.42;;;4.43;;
14603;SDS011;7388;51.078;13.740;2023-11-21T13:48:01;14.57;;;2.40;;
14603;SDS011;7388;51.078;13.740;2023-11-21T13:50:27;17.10;;;2.10;;
14603;SDS011;7388;51.078;13.740;2023-11-21T13:53:01;11.13;;;1.65;;
14603;SDS011;7388;51.078;13.740;2023-11-21T13:55:46;11.20;;;1.95;;
14603;SDS011;7388;51.078;13.740;2023-11-21T13:58:12;12.25;;;2.05;;
14603;SDS011;7388;51.078;13.740;2023-11-21T14:00:44;15.20;;;3.78;;
14603;SDS011;7388;51.078;13.740;2023-11-21T14:03:14;11.30;;;2.20;;
14603;SDS011;7388;51.078;13.740;2023-11-21T14:05:44;17.70;;;3.15;;
14603;SDS011;7388;51.078;13.740;2023-11-21T14:08:13;12.23;;;1.83;;
14603;SDS011;7388;51.078;13.740;2023-11-21T14:10:42;10.88;;;1.85;;
14603;SDS011;7388;51.078;13.740;2023-11-21T14:13:11;26.10;;;4.22;;
14603;SDS011;7388;51.078;13.740;2023-11-21T14:15:38;12.68;;;2.13;;
14603;SDS011;7388;51.078;13.740;2023-11-21T14:18:10;11.40;;;1.42;;
14603;SDS011;7388;51.078;13.740;2023-11-21T14:20:39;19.73;;;2.95;;
14603;SDS011;7388;51.078;13.740;2023-11-21T14:23:06;16.02;;;2.40;;
14603;SDS011;7388;51.078;13.740;2023-11-21T14:25:32;14.40;;;2.20;;
14603;SDS011;7388;51.078;13.740;2023-11-21T14:27:59;23.30;;;3.25;;
14603;SDS011;7388;51.078;13.740;2023-11-21T14:30:25;13.40;;;1.42;;
14603;SDS011;7388;51.078;13.740;2023-11-21T14:32:52;11.13;;;2.85;;
14603;SDS011;7388;51.078;13.740;2023-11-21T14:35:18;12.93;;;2.00;;
14603;SDS011;7388;51.078;13.740;2023-11-21T14:37:44;17.27;;;2.33;;
14603;SDS011;7388;51.078;13.740;2023-11-21T14:40:11;12.20;;;1.77;;
14603;SDS011;7388;51.078;13.740;2023-11-21T14:42:40;17.50;;;2.50;;
14603;SDS011;7388;51.078;13.740;2023-11-21T14:45:07;10.82;;;1.48;;
14603;SDS011;7388;51.078;13.740;2023-11-21T14:47:33;14.88;;;3.08;;
14603;SDS011;7388;51.078;13.740;2023-11-21T14:50:00;14.30;;;2.90;;
14603;SDS011;7388;51.078;13.740;2023-11-21T14:52:46;13.68;;;1.65;;
14603;SDS011;7388;51.078;13.740;2023-11-21T14:55:20;17.17;;;4.18;;
14603;SDS011;7388;51.078;13.740;2023-11-21T14:57:57;11.60;;;3.92;;